Time;durP1;ratioP1;P1;durP2;ratioP2;P2;SDS_P1;SDS_P2;PMS_P1;PMS_P2;Temp;Humidity;BMP_temperature;BMP_pressure;BME280_temperature;BME280_humidity;BME280_pressure;Samples;Min_cycle;Max_cycle;Signal;HPM_P1;HPM_P2
2023/12/13 00:02:16;;;;;;;42.60;29.00;;;;;;;4.47;100.00;98976.71;179624;1254;59575;-85
2023/12/13 00:06:20;;;;;;;44.60;29.30;;;;;;;4.52;100.00;98967.15;179326;1254;45910;-84
2023/12/13 00:10:23;;;;;;;48.70;29.50;;;;;;;4.62;100.00;98964.30;179442;1254;46782;-85
2023/12/13 00:14:27;;;;;;;41.40;28.80;;;;;;;4.73;100.00;98959.05;179753;1254;46006;-86
2023/12/13 00:18:30;;;;;;;44.60;29.20;;;;;;;4.82;100.00;98954.25;179132;1254;45889;-84
2023/12/13 00:22:33;;;;;;;46.00;31.00;;;;;;;4.90;100.00;98956.84;179677;1254;58214;-83
2023/12/13 00:26:37;;;;;;;45.40;28.20;;;;;;;4.96;100.00;98949.52;179967;1254;44886;-86
2023/12/13 00:30:40;;;;;;;45.00;28.50;;;;;;;5.01;100.00;98945.44;179728;1254;45981;-86
2023/12/13 00:34:44;;;;;;;47.30;28.70;;;;;;;5.08;100.00;98945.06;178354;1258;46210;-86
2023/12/13 00:38:48;;;;;;;44.10;26.50;;;;;;;5.18;100.00;98945.84;179320;1254;45917;-85
2023/12/13 00:42:51;;;;;;;42.40;27.20;;;;;;;5.22;100.00;98940.44;179423;1254;58445;-85
2023/12/13 00:46:54;;;;;;;62.20;29.20;;;;;;;5.27;100.00;98938.23;178961;1254;46413;-82
2023/12/13 00:50:58;;;;;;;47.90;25.20;;;;;;;5.29;100.00;98936.29;178926;1253;46137;-86
2023/12/13 00:55:04;;;;;;;41.20;28.30;;;;;;;5.27;100.00;98929.91;177963;1254;46267;-86
2023/12/13 00:59:08;;;;;;;43.10;26.20;;;;;;;5.29;100.00;98919.21;179092;1254;44772;-85
2023/12/13 01:03:11;;;;;;;47.60;27.30;;;;;;;5.26;100.00;98916.52;179211;1254;59517;-86
2023/12/13 01:07:15;;;;;;;45.00;30.90;;;;;;;5.25;100.00;98920.83;179091;1254;44067;-84
2023/12/13 01:11:20;;;;;;;54.70;31.60;;;;;;;5.22;100.00;98921.23;178692;1254;46069;-83
2023/12/13 01:15:24;;;;;;;52.40;30.00;;;;;;;5.16;100.00;98913.28;178491;1257;46061;-85
2023/12/13 01:19:27;;;;;;;45.70;28.90;;;;;;;5.09;100.00;98903.27;178536;1254;46095;-80
2023/12/13 01:23:31;;;;;;;47.10;25.90;;;;;;;5.03;100.00;98895.90;179333;1254;59258;-85
2023/12/13 01:27:34;;;;;;;47.50;27.60;;;;;;;5.01;100.00;98889.70;178398;1254;45999;-84
2023/12/13 01:31:38;;;;;;;43.50;28.00;;;;;;;5.00;100.00;98887.17;179462;1257;45988;-85
2023/12/13 01:35:41;;;;;;;45.10;27.10;;;;;;;4.93;100.00;98885.76;180064;1253;44229;-85
2023/12/13 01:39:44;;;;;;;44.10;29.90;;;;;;;4.83;100.00;98893.26;179402;1257;44138;-84
2023/12/13 01:43:48;;;;;;;49.00;31.40;;;;;;;4.70;100.00;98884.27;178843;1254;59259;-85
2023/12/13 01:47:51;;;;;;;54.30;29.90;;;;;;;4.57;100.00;98876.84;178967;1254;45925;-84
2023/12/13 01:51:55;;;;;;;41.60;25.20;;;;;;;4.51;100.00;98880.00;179438;1254;44383;-83
2023/12/13 01:56:00;;;;;;;41.90;28.60;;;;;;;4.51;100.00;98871.40;178786;1254;46075;-85
2023/12/13 02:00:04;;;;;;;45.50;24.50;;;;;;;4.53;100.00;98871.58;180060;1254;46004;-85
2023/12/13 02:04:08;;;;;;;42.80;25.20;;;;;;;4.61;100.00;98868.86;179529;1253;58600;-85
2023/12/13 02:08:11;;;;;;;38.90;25.90;;;;;;;4.62;100.00;98866.46;179122;1254;46121;-86
2023/12/13 02:12:14;;;;;;;48.40;29.00;;;;;;;4.58;100.00;98859.40;180374;1254;45969;-81
2023/12/13 02:16:18;;;;;;;39.30;27.30;;;;;;;4.53;100.00;98855.23;181222;1254;45988;-84
2023/12/13 02:20:21;;;;;;;45.80;26.40;;;;;;;4.47;100.00;98853.83;178800;1254;46092;-83
2023/12/13 02:24:30;;;;;;;37.30;26.00;;;;;;;4.33;100.00;98849.61;179322;1254;60598;-83
2023/12/13 02:28:33;;;;;;;39.50;25.30;;;;;;;4.25;100.00;98840.75;179896;1254;46140;-85
2023/12/13 02:32:37;;;;;;;41.80;27.20;;;;;;;4.21;100.00;98836.46;179382;1254;44127;-85
2023/12/13 02:36:44;;;;;;;37.50;27.40;;;;;;;4.17;100.00;98832.66;178573;1254;44453;-84
2023/12/13 02:40:47;;;;;;;38.70;25.90;;;;;;;4.13;100.00;98826.74;179071;1254;46098;-85
2023/12/13 02:44:51;;;;;;;52.30;27.20;;;;;;;4.09;100.00;98824.46;179504;1254;59784;-86
2023/12/13 02:48:57;;;;;;;47.00;26.30;;;;;;;4.09;100.00;98823.25;179053;1254;46106;-85
2023/12/13 02:53:01;;;;;;;45.60;28.90;;;;;;;4.07;100.00;98827.92;179189;1254;45953;-85
2023/12/13 02:57:04;;;;;;;39.60;25.80;;;;;;;4.06;100.00;98824.98;178908;1254;46186;-82
2023/12/13 03:01:07;;;;;;;44.30;29.10;;;;;;;4.08;100.00;98821.36;179799;1254;44786;-82
2023/12/13 03:05:11;;;;;;;48.90;28.30;;;;;;;4.09;100.00;98816.54;178596;1254;58107;-85
2023/12/13 03:09:15;;;;;;;46.30;25.30;;;;;;;4.07;100.00;98816.30;179141;1254;45931;-84
2023/12/13 03:13:18;;;;;;;37.30;23.20;;;;;;;4.11;100.00;98806.92;180013;1254;46025;-86
2023/12/13 03:17:21;;;;;;;41.10;25.20;;;;;;;4.16;100.00;98795.49;180236;1254;44186;-85
2023/12/13 03:21:24;;;;;;;44.60;24.60;;;;;;;4.21;100.00;98787.89;179652;1254;44917;-83
2023/12/13 03:25:28;;;;;;;46.70;26.80;;;;;;;4.31;100.00;98780.42;178700;1254;59228;-84
2023/12/13 03:29:31;;;;;;;38.50;26.60;;;;;;;4.37;100.00;98769.62;179777;1254;46070;-82
2023/12/13 03:33:34;;;;;;;38.80;25.50;;;;;;;4.37;100.00;98759.08;180422;1253;44168;-86
2023/12/13 03:37:38;;;;;;;40.90;23.90;;;;;;;4.36;100.00;98754.81;180367;1253;46033;-84
2023/12/13 03:41:41;;;;;;;46.70;24.30;;;;;;;4.28;100.00;98751.92;179401;1254;45877;-85
2023/12/13 03:45:44;;;;;;;43.50;25.10;;;;;;;4.15;100.00;98748.36;180159;1254;58648;-85
2023/12/13 03:49:47;;;;;;;42.60;22.40;;;;;;;4.12;100.00;98739.61;178819;1254;46026;-84
2023/12/13 03:53:50;;;;;;;37.40;23.40;;;;;;;4.17;100.00;98736.33;178790;1254;45982;-86
2023/12/13 03:57:54;;;;;;;40.50;23.30;;;;;;;4.17;100.00;98742.41;178939;1254;45996;-86
2023/12/13 04:01:57;;;;;;;43.20;27.60;;;;;;;4.19;100.00;98738.77;179683;1254;44243;-83
2023/12/13 04:06:03;;;;;;;39.70;23.60;;;;;;;4.23;100.00;98737.36;178648;1255;58003;-83
2023/12/13 04:10:09;;;;;;;37.40;23.60;;;;;;;4.26;100.00;98734.89;179282;1254;45829;-86
2023/12/13 04:14:12;;;;;;;43.50;21.60;;;;;;;4.28;100.00;98739.80;178983;1253;44620;-85
2023/12/13 04:18:15;;;;;;;39.80;22.50;;;;;;;4.24;100.00;98739.59;179515;1255;44546;-83
2023/12/13 04:22:18;;;;;;;52.90;21.70;;;;;;;4.23;100.00;98740.37;178483;1254;45981;-82
2023/12/13 04:26:22;;;;;;;35.60;23.30;;;;;;;4.22;100.00;98741.86;179055;1253;57923;-83
2023/12/13 04:30:25;;;;;;;39.00;25.50;;;;;;;4.26;100.00;98740.44;179287;1255;46148;-84
2023/12/13 04:34:28;;;;;;;38.80;24.00;;;;;;;4.36;100.00;98736.70;179972;1254;45991;-83
2023/12/13 04:38:33;;;;;;;49.10;26.10;;;;;;;4.48;100.00;98730.31;180413;1254;45885;-83
2023/12/13 04:42:37;;;;;;;44.60;25.60;;;;;;;4.63;100.00;98723.13;181465;1254;44048;-84
2023/12/13 04:46:40;;;;;;;43.50;23.70;;;;;;;4.77;100.00;98719.73;180115;1254;58000;-82
2023/12/13 04:50:43;;;;;;;54.30;29.30;;;;;;;4.91;100.00;98711.86;180501;1254;45878;-83
2023/12/13 04:54:46;;;;;;;48.90;28.10;;;;;;;5.05;100.00;98706.67;180002;1253;45409;-83
2023/12/13 04:58:49;;;;;;;42.10;28.30;;;;;;;5.14;100.00;98699.02;178478;1254;46083;-85
2023/12/13 05:02:54;;;;;;;41.40;23.80;;;;;;;5.23;100.00;98694.08;178873;1254;44329;-85
2023/12/13 05:07:05;;;;;;;47.20;27.40;;;;;;;5.32;100.00;98685.40;178817;1254;59560;-86
2023/12/13 05:11:12;;;;;;;36.20;25.80;;;;;;;5.36;100.00;98681.10;178785;1255;46175;-86
2023/12/13 05:15:16;;;;;;;40.80;24.30;;;;;;;5.38;100.00;98679.85;178270;1257;46121;-84
2023/12/13 05:19:20;;;;;;;42.10;24.90;;;;;;;5.43;100.00;98673.80;177857;1257;46224;-87
2023/12/13 05:23:26;;;;;;;43.90;24.40;;;;;;;5.46;100.00;98673.33;177506;1257;46014;-85
2023/12/13 05:27:38;;;;;;;44.10;24.70;;;;;;;5.50;100.00;98681.21;178038;1258;59571;-84
2023/12/13 05:31:42;;;;;;;41.90;23.20;;;;;;;5.53;100.00;98677.28;178038;1257;46045;-85
2023/12/13 05:35:46;;;;;;;45.00;24.70;;;;;;;5.56;100.00;98670.13;177716;1257;46046;-87
2023/12/13 05:39:49;;;;;;;36.30;22.20;;;;;;;5.62;100.00;98661.64;177217;1256;45068;-88
2023/12/13 05:43:52;;;;;;;36.30;22.90;;;;;;;5.63;100.00;98649.54;179089;1257;44069;-85
2023/12/13 05:47:56;;;;;;;34.50;23.40;;;;;;;5.63;100.00;98642.15;178339;1257;59218;-85
2023/12/13 05:51:59;;;;;;;39.10;24.80;;;;;;;5.60;100.00;98633.95;180108;1257;44718;-85
2023/12/13 05:56:02;;;;;;;31.30;17.70;;;;;;;5.55;100.00;98639.84;180323;1257;46187;-84
2023/12/13 06:00:07;;;;;;;37.20;21.20;;;;;;;5.56;100.00;98656.08;178897;1259;46241;-85
2023/12/13 06:04:10;;;;;;;30.60;21.60;;;;;;;5.57;100.00;98663.08;179460;1257;44092;-85
2023/12/13 06:08:13;;;;;;;32.50;22.10;;;;;;;5.57;100.00;98663.55;179122;1257;58252;-86
2023/12/13 06:12:17;;;;;;;40.30;19.90;;;;;;;5.60;100.00;98665.46;178676;1257;46008;-85
2023/12/13 06:16:20;;;;;;;27.00;20.10;;;;;;;5.64;100.00;98664.98;178170;1257;46001;-85
2023/12/13 06:20:24;;;;;;;29.40;18.90;;;;;;;5.68;100.00;98653.88;178484;1257;46911;-85
2023/12/13 06:24:27;;;;;;;43.50;20.80;;;;;;;5.71;100.00;98652.73;178056;1260;46108;-86
2023/12/13 06:28:30;;;;;;;31.70;19.10;;;;;;;5.72;100.00;98648.44;178646;1258;59622;-85
2023/12/13 06:32:33;;;;;;;34.00;20.40;;;;;;;5.76;100.00;98641.54;179175;1258;45979;-86
2023/12/13 06:36:37;;;;;;;33.40;18.80;;;;;;;5.78;100.00;98639.39;179197;1258;45911;-86
2023/12/13 06:40:40;;;;;;;30.60;19.90;;;;;;;5.74;100.00;98639.46;180199;1256;44444;-85
2023/12/13 06:44:44;;;;;;;33.30;20.40;;;;;;;5.77;100.00;98643.60;179179;1256;46104;-86
2023/12/13 06:48:47;;;;;;;46.40;24.90;;;;;;;5.75;100.00;98648.83;179374;1257;56939;-86
2023/12/13 06:52:51;;;;;;;31.00;20.50;;;;;;;5.75;100.00;98645.83;178826;1256;46097;-86
2023/12/13 06:56:56;;;;;;;39.00;23.60;;;;;;;5.80;100.00;98638.90;178750;1256;46019;-84
2023/12/13 07:00:59;;;;;;;34.20;20.80;;;;;;;5.84;100.00;98638.17;177849;1257;46024;-86
2023/12/13 07:05:03;;;;;;;25.40;16.60;;;;;;;5.88;100.00;98639.45;177939;1260;46058;-84
2023/12/13 07:09:06;;;;;;;31.80;19.70;;;;;;;5.90;100.00;98638.39;177673;1258;59142;-86
2023/12/13 07:13:09;;;;;;;28.50;16.60;;;;;;;5.90;100.00;98640.16;177996;1257;45994;-85
2023/12/13 07:17:13;;;;;;;39.00;24.50;;;;;;;5.81;100.00;98651.31;177668;1258;46135;-86
2023/12/13 07:21:16;;;;;;;46.40;26.80;;;;;;;5.80;100.00;98657.77;178004;1256;44630;-85
2023/12/13 07:25:19;;;;;;;39.30;19.70;;;;;;;5.74;100.00;98668.63;178138;1258;45285;-86
2023/12/13 07:29:23;;;;;;;40.20;21.90;;;;;;;5.67;100.00;98663.38;177330;1256;58603;-85
2023/12/13 07:33:26;;;;;;;48.10;28.10;;;;;;;5.74;100.00;98664.63;177484;1257;44706;-85
2023/12/13 07:37:29;;;;;;;32.00;19.20;;;;;;;5.74;100.00;98654.71;178122;1256;46028;-85
2023/12/13 07:41:33;;;;;;;32.30;17.80;;;;;;;5.81;100.00;98653.94;178019;1257;46208;-86
2023/12/13 07:45:36;;;;;;;32.20;17.50;;;;;;;5.88;100.00;98645.59;178420;1258;46118;-86
2023/12/13 07:49:39;;;;;;;33.80;18.60;;;;;;;5.96;100.00;98638.39;177750;1260;58698;-85
2023/12/13 07:53:43;;;;;;;33.30;18.10;;;;;;;6.05;100.00;98641.98;177521;1256;46090;-84
2023/12/13 07:57:49;;;;;;;28.40;17.60;;;;;;;6.14;100.00;98640.36;177858;1257;46150;-86
2023/12/13 08:01:52;;;;;;;25.80;17.00;;;;;;;6.18;100.00;98640.86;178375;1257;46063;-86
2023/12/13 08:05:56;;;;;;;36.40;16.60;;;;;;;6.24;100.00;98633.52;179606;1258;44837;-85
2023/12/13 08:10:02;;;;;;;31.60;17.60;;;;;;;6.27;100.00;98637.76;180524;1260;58215;-83
2023/12/13 08:14:06;;;;;;;51.70;29.40;;;;;;;6.38;100.00;98635.91;178115;1257;46137;-85
2023/12/13 08:18:09;;;;;;;72.00;64.60;;;;;;;6.47;100.00;98642.34;178193;1257;46007;-85
2023/12/13 08:22:13;;;;;;;33.50;24.70;;;;;;;6.56;100.00;98644.52;178391;1257;46031;-86
2023/12/13 08:26:16;;;;;;;31.80;18.20;;;;;;;6.56;100.00;98647.64;177813;1257;46026;-86
2023/12/13 08:30:21;;;;;;;28.30;17.70;;;;;;;6.55;100.00;98651.61;177679;1257;59649;-86
2023/12/13 08:34:24;;;;;;;46.20;31.50;;;;;;;6.60;100.00;98658.29;177404;1258;46106;-86
2023/12/13 08:38:28;;;;;;;28.50;18.10;;;;;;;6.66;100.00;98660.73;177626;1258;45996;-85
2023/12/13 08:42:32;;;;;;;22.40;16.00;;;;;;;6.63;100.00;98659.42;178249;1257;46042;-86
2023/12/13 08:46:47;;;;;;;23.40;15.30;;;;;;;6.58;100.00;98661.27;178188;1258;46585;-85
2023/12/13 08:50:51;;;;;;;30.40;20.40;;;;;;;6.60;100.00;98661.10;177999;1256;58725;-86
2023/12/13 08:54:55;;;;;;;34.10;15.60;;;;;;;6.65;100.00;98662.30;177760;1256;45956;-86
2023/12/13 08:58:59;;;;;;;34.00;20.20;;;;;;;6.72;100.00;98661.77;177662;1256;189966;-87
2023/12/13 09:03:03;;;;;;;39.10;21.10;;;;;;;6.76;100.00;98657.52;177513;1256;46138;-86
2023/12/13 09:07:06;;;;;;;28.20;18.50;;;;;;;6.82;100.00;98650.58;177959;1257;46220;-87
2023/12/13 09:11:10;;;;;;;28.70;18.40;;;;;;;6.84;100.00;98651.48;177664;1256;60726;-86
2023/12/13 09:15:16;;;;;;;31.00;17.10;;;;;;;6.84;100.00;98655.70;177837;1257;45940;-86
2023/12/13 09:19:19;;;;;;;23.40;16.30;;;;;;;6.85;100.00;98652.30;178350;1256;45945;-85
2023/12/13 09:23:28;;;;;;;22.60;14.70;;;;;;;6.82;100.00;98651.64;178148;1258;46054;-87
2023/12/13 09:27:31;;;;;;;18.80;15.20;;;;;;;6.83;100.00;98652.48;177913;1256;46137;-85
2023/12/13 09:31:35;;;;;;;20.20;14.10;;;;;;;6.86;100.00;98647.98;178796;1258;59186;-85
2023/12/13 09:35:38;;;;;;;25.80;14.90;;;;;;;6.86;100.00;98650.07;179102;1256;44022;-87
2023/12/13 09:39:42;;;;;;;36.40;22.50;;;;;;;6.84;100.00;98651.63;178762;1258;46135;-86
2023/12/13 09:43:49;;;;;;;32.70;24.40;;;;;;;6.82;100.00;98653.25;178471;1258;44027;-86
2023/12/13 09:47:53;;;;;;;24.80;16.10;;;;;;;6.83;100.00;98651.73;178914;1257;46038;-87
2023/12/13 09:52:02;;;;;;;21.30;14.90;;;;;;;6.86;100.00;98650.77;179401;1256;57279;-85
2023/12/13 09:56:09;;;;;;;216.70;104.70;;;;;;;6.89;100.00;98649.50;179091;1257;46112;-88
2023/12/13 10:00:12;;;;;;;28.10;17.20;;;;;;;6.90;100.00;98646.04;178468;1256;46334;-86
2023/12/13 10:04:16;;;;;;;24.40;14.00;;;;;;;6.92;100.00;98647.95;178073;1257;46176;-87
2023/12/13 10:08:20;;;;;;;27.30;17.60;;;;;;;6.93;100.00;98639.73;178730;1257;44241;-82
2023/12/13 10:12:25;;;;;;;30.50;17.30;;;;;;;6.91;100.00;98644.48;178833;1257;58366;-86
2023/12/13 10:16:28;;;;;;;26.40;16.60;;;;;;;6.93;100.00;98640.48;178988;1256;46066;-87
2023/12/13 10:20:32;;;;;;;26.30;14.90;;;;;;;7.01;100.00;98640.93;178909;1258;46105;-86
2023/12/13 10:24:39;;;;;;;32.10;15.90;;;;;;;7.12;100.00;98639.55;178188;1257;46027;-86
2023/12/13 10:28:42;;;;;;;28.20;15.90;;;;;;;7.27;100.00;98635.55;178707;1260;44429;-86
2023/12/13 10:32:45;;;;;;;32.00;18.70;;;;;;;7.41;100.00;98635.15;178477;1257;57931;-86
2023/12/13 10:36:49;;;;;;;29.90;18.20;;;;;;;7.49;100.00;98632.75;177804;1259;46119;-86
2023/12/13 10:40:53;;;;;;;25.60;15.30;;;;;;;7.59;100.00;98626.15;177988;1256;46057;-86
2023/12/13 10:44:56;;;;;;;33.40;18.90;;;;;;;7.63;100.00;98626.46;178572;1256;46113;-86
2023/12/13 10:49:03;;;;;;;37.70;21.70;;;;;;;7.61;100.00;98619.88;178591;1256;46001;-86
2023/12/13 10:53:07;;;;;;;28.50;20.50;;;;;;;7.67;100.00;98617.48;177632;1259;58218;-87
2023/12/13 10:57:12;;;;;;;30.10;18.80;;;;;;;7.68;100.00;98615.80;178094;1256;45997;-85
2023/12/13 11:01:17;;;;;;;37.80;19.30;;;;;;;7.68;100.00;98617.05;178425;1256;46112;-87
2023/12/13 11:05:21;;;;;;;39.00;21.00;;;;;;;7.67;100.00;98621.35;179079;1256;46125;-86
2023/12/13 11:09:24;;;;;;;37.40;21.00;;;;;;;7.70;100.00;98615.98;179104;1259;46113;-86
2023/12/13 11:13:28;;;;;;;41.40;22.90;;;;;;;7.74;100.00;98613.24;178410;1258;58155;-86
2023/12/13 11:17:36;;;;;;;41.00;27.50;;;;;;;7.77;100.00;98607.82;178403;1256;46271;-85
2023/12/13 11:21:43;;;;;;;50.60;27.20;;;;;;;7.81;100.00;98603.63;178804;1257;44335;-86
2023/12/13 11:25:48;;;;;;;48.70;23.80;;;;;;;7.83;100.00;98605.70;178405;1257;46143;-87
2023/12/13 11:29:54;;;;;;;39.80;24.00;;;;;;;7.85;100.00;98602.98;178610;1257;46162;-86
2023/12/13 11:33:57;;;;;;;35.60;23.60;;;;;;;7.85;100.00;98606.39;178188;1257;59329;-87
2023/12/13 11:38:03;;;;;;;32.20;22.50;;;;;;;7.83;100.00;98600.75;178219;1257;46110;-87
2023/12/13 11:42:08;;;;;;;35.60;21.20;;;;;;;7.86;100.00;98600.45;178987;1256;46131;-85
2023/12/13 11:46:13;;;;;;;38.00;24.60;;;;;;;7.91;100.00;98600.42;178206;1257;46020;-86
2023/12/13 11:50:19;;;;;;;35.30;25.30;;;;;;;7.94;100.00;98605.94;179286;1257;44611;-86
2023/12/13 11:54:24;;;;;;;25.30;18.70;;;;;;;7.94;100.00;98600.75;180535;1256;57749;-83
2023/12/13 11:58:30;;;;;;;29.20;21.90;;;;;;;8.00;100.00;98595.23;180893;1257;46094;-84
2023/12/13 12:02:33;;;;;;;;;;;;;;;8.05;100.00;98592.78;178950;1258;46080;-87
2023/12/13 12:06:48;;;;;;;31.90;22.80;;;;;;;8.08;100.00;98594.13;178146;1257;45801;-87
2023/12/13 12:10:52;;;;;;;44.90;22.60;;;;;;;8.13;100.00;98596.22;178563;1256;46082;-87
2023/12/13 12:14:55;;;;;;;27.20;21.30;;;;;;;8.21;100.00;98598.67;179252;1259;58702;-87
2023/12/13 12:18:59;;;;;;;29.00;23.70;;;;;;;8.33;100.00;98599.41;178632;1256;46110;-87
2023/12/13 12:23:02;;;;;;;28.50;19.70;;;;;;;8.41;100.00;98603.35;178506;1257;45963;-85
2023/12/13 12:27:10;;;;;;;36.50;21.50;;;;;;;8.41;100.00;98603.45;179267;1257;46001;-87
2023/12/13 12:31:14;;;;;;;33.30;22.60;;;;;;;8.43;100.00;98610.59;179404;1257;46069;-87
2023/12/13 12:35:19;;;;;;;31.30;22.10;;;;;;;8.44;100.00;98604.00;178519;1257;59337;-86
2023/12/13 12:39:23;;;;;;;33.90;28.40;;;;;;;8.44;100.00;98597.61;178666;1256;45987;-87
2023/12/13 12:43:26;;;;;;;43.20;29.80;;;;;;;8.52;100.00;98594.77;177924;1258;46106;-85
2023/12/13 12:47:29;;;;;;;26.10;18.50;;;;;;;8.57;100.00;98595.98;178816;1257;46059;-86
2023/12/13 12:51:33;;;;;;;26.70;19.00;;;;;;;8.59;100.00;98596.02;178713;1257;44183;-85
2023/12/13 12:55:36;;;;;;;32.00;18.70;;;;;;;8.60;100.00;98599.15;178307;1259;59031;-86
2023/12/13 12:59:39;;;;;;;29.30;19.90;;;;;;;8.62;100.00;98597.97;178749;1258;46053;-85
2023/12/13 13:03:44;;;;;;;32.90;21.90;;;;;;;8.67;100.00;98592.91;179413;1257;46026;-86
2023/12/13 13:07:47;;;;;;;27.90;18.70;;;;;;;8.68;100.00;98591.40;179370;1257;43963;-84
2023/12/13 13:11:51;;;;;;;31.30;19.30;;;;;;;8.71;100.00;98593.86;178902;1259;46127;-88
2023/12/13 13:15:54;;;;;;;25.80;18.50;;;;;;;8.75;100.00;98599.40;179080;1257;58158;-88
2023/12/13 13:19:57;;;;;;;25.20;20.20;;;;;;;8.76;100.00;98601.38;178860;1258;44161;-87
2023/12/13 13:24:00;;;;;;;24.90;16.00;;;;;;;8.80;100.00;98600.84;179433;1258;46058;-86
2023/12/13 13:28:08;;;;;;;26.00;19.30;;;;;;;8.78;100.00;98600.33;178644;1257;45991;-87
2023/12/13 13:32:11;;;;;;;30.30;21.80;;;;;;;8.77;100.00;98606.22;178760;1256;45914;-85
2023/12/13 13:36:14;;;;;;;34.20;21.80;;;;;;;8.73;100.00;98605.64;179288;1258;57975;-86
2023/12/13 13:40:18;;;;;;;34.90;21.80;;;;;;;8.71;100.00;98605.73;178515;1256;44096;-87
2023/12/13 13:44:22;;;;;;;25.50;19.20;;;;;;;8.73;100.00;98607.00;178578;1257;45923;-86
2023/12/13 13:48:26;;;;;;;31.00;18.90;;;;;;;8.72;100.00;98611.33;179218;1256;46017;-86
2023/12/13 13:52:30;;;;;;;29.90;20.90;;;;;;;8.72;100.00;98611.46;179295;1259;46124;-88
2023/12/13 13:56:33;;;;;;;45.70;27.70;;;;;;;8.74;100.00;98605.48;180012;1257;57869;-88
2023/12/13 14:00:40;;;;;;;37.80;25.80;;;;;;;8.75;100.00;98602.02;178998;1257;45946;-88
2023/12/13 14:04:44;;;;;;;36.40;23.10;;;;;;;8.73;100.00;98606.81;178868;1259;46123;-87
2023/12/13 14:08:47;;;;;;;27.10;21.10;;;;;;;8.73;100.00;98603.31;179393;1260;46049;-85
2023/12/13 14:12:50;;;;;;;29.20;20.70;;;;;;;8.71;100.00;98604.70;178178;1258;45992;-84
2023/12/13 14:16:54;;;;;;;40.50;25.10;;;;;;;8.70;100.00;98606.91;180086;1258;58181;-86
2023/12/13 14:20:57;;;;;;;32.00;24.20;;;;;;;8.66;100.00;98615.27;179702;1257;44097;-85
2023/12/13 14:25:01;;;;;;;39.10;29.10;;;;;;;8.64;100.00;98629.92;179413;1257;45919;-87
2023/12/13 14:29:04;;;;;;;41.60;29.80;;;;;;;8.63;100.00;98637.64;179194;1258;46117;-84
2023/12/13 14:33:08;;;;;;;30.30;22.10;;;;;;;8.61;100.00;98645.48;179203;1257;44396;-86
2023/12/13 14:37:12;;;;;;;49.10;28.50;;;;;;;8.55;100.00;98649.56;179716;1257;58485;-87
2023/12/13 14:41:15;;;;;;;43.90;27.20;;;;;;;8.51;100.00;98654.77;179689;1256;46028;-88
2023/12/13 14:45:19;;;;;;;41.00;27.70;;;;;;;8.55;100.00;98656.13;179643;1257;44643;-89
2023/12/13 14:49:22;;;;;;;51.00;30.40;;;;;;;8.63;100.00;98663.60;179752;1258;46039;-88
2023/12/13 14:53:26;;;;;;;56.30;29.70;;;;;;;8.68;100.00;98665.58;179952;1259;45904;-89
2023/12/13 14:57:30;;;;;;;50.90;31.70;;;;;;;8.67;100.00;98677.77;180106;1260;59301;-90
2023/12/13 15:01:34;;;;;;;43.50;28.90;;;;;;;8.61;100.00;98673.38;179383;1257;46095;-91
2023/12/13 15:05:40;;;;;;;40.70;26.90;;;;;;;8.53;100.00;98678.20;179790;1257;45974;-89
2023/12/13 15:09:46;;;;;;;37.60;25.80;;;;;;;8.45;100.00;98678.30;179798;1257;44094;-89
2023/12/13 15:13:49;;;;;;;42.90;27.40;;;;;;;8.37;100.00;98683.86;180196;1257;44377;-86
2023/12/13 15:17:53;;;;;;;41.60;28.70;;;;;;;8.34;100.00;98683.63;179752;1259;58898;-88
2023/12/13 15:21:58;;;;;;;51.20;25.60;;;;;;;8.25;100.00;98683.77;179639;1261;45943;-90
2023/12/13 15:26:02;;;;;;;46.20;28.50;;;;;;;8.21;100.00;98686.61;180300;1257;45113;-90
2023/12/13 15:30:08;;;;;;;52.30;32.90;;;;;;;8.18;100.00;98686.20;180127;1258;44807;-87
2023/12/13 15:34:14;;;;;;;41.30;27.70;;;;;;;8.20;100.00;98680.18;179267;1259;45882;-85
2023/12/13 15:38:18;;;;;;;43.80;27.40;;;;;;;8.22;100.00;98682.98;179017;1257;58305;-88
2023/12/13 15:42:21;;;;;;;50.70;36.50;;;;;;;8.18;100.00;98686.16;178672;1260;44760;-87
2023/12/13 15:46:25;;;;;;;41.30;31.00;;;;;;;8.12;100.00;98687.95;178413;1260;46019;-88
2023/12/13 15:50:28;;;;;;;44.80;32.10;;;;;;;8.04;100.00;98691.08;180726;1257;45903;-87
2023/12/13 15:54:32;;;;;;;47.40;31.00;;;;;;;7.98;100.00;98698.48;180022;1257;43583;-88
2023/12/13 15:58:35;;;;;;;47.60;32.90;;;;;;;7.97;100.00;98693.67;179147;1256;57435;-87
2023/12/13 16:02:40;;;;;;;45.30;31.20;;;;;;;7.94;100.00;98689.56;178873;1257;46197;-87
2023/12/13 16:06:44;;;;;;;39.30;28.80;;;;;;;7.94;100.00;98688.91;178846;1256;45973;-88
2023/12/13 16:10:51;;;;;;;44.10;30.10;;;;;;;7.91;100.00;98692.52;178886;1261;44834;-87
2023/12/13 16:14:55;;;;;;;48.90;37.20;;;;;;;7.82;100.00;98694.23;178838;1256;45966;-88
2023/12/13 16:19:00;;;;;;;45.90;35.80;;;;;;;7.80;100.00;98702.15;178591;1261;57923;-86
2023/12/13 16:23:03;;;;;;;47.10;34.10;;;;;;;7.92;100.00;98708.12;178709;1258;46522;-88
2023/12/13 16:27:07;;;;;;;53.00;36.40;;;;;;;8.06;100.00;98709.95;178171;1256;46010;-88
2023/12/13 16:31:10;;;;;;;61.30;41.80;;;;;;;8.12;100.00;98719.37;178680;1261;46105;-86
2023/12/13 16:35:15;;;;;;;58.50;38.30;;;;;;;8.15;100.00;98716.98;179667;1258;44184;-87
2023/12/13 16:39:19;;;;;;;59.40;41.20;;;;;;;8.25;100.00;98711.65;180445;1257;61611;-86
2023/12/13 16:43:23;;;;;;;68.90;45.50;;;;;;;8.26;100.00;98707.84;179355;1262;46236;-85
2023/12/13 16:47:26;;;;;;;74.70;50.60;;;;;;;8.11;100.00;98717.73;178630;1256;44977;-87
2023/12/13 16:51:29;;;;;;;48.30;33.80;;;;;;;8.08;100.00;98719.29;179601;1256;46105;-87
2023/12/13 16:55:33;;;;;;;48.10;31.60;;;;;;;8.01;100.00;98718.55;178497;1260;44264;-87
2023/12/13 16:59:37;;;;;;;45.20;30.10;;;;;;;7.89;100.00;98718.48;179230;1256;58451;-87
2023/12/13 17:03:42;;;;;;;55.00;32.90;;;;;;;7.73;100.00;98721.36;179633;1256;45950;-87
2023/12/13 17:07:45;;;;;;;104.60;64.10;;;;;;;7.61;100.00;98719.52;179612;1257;46080;-86
2023/12/13 17:11:49;;;;;;;91.60;60.80;;;;;;;7.60;100.00;98721.39;180259;1257;46095;-86
2023/12/13 17:15:53;;;;;;;162.70;91.50;;;;;;;7.59;100.00;98714.89;179017;1257;46080;-86
2023/12/13 17:19:56;;;;;;;69.50;46.40;;;;;;;7.63;100.00;98718.09;178137;1260;58053;-87
2023/12/13 17:24:00;;;;;;;51.40;36.40;;;;;;;7.71;100.00;98717.70;178345;1259;46218;-86
2023/12/13 17:28:07;;;;;;;66.50;40.10;;;;;;;7.73;100.00;98716.60;178714;1258;46054;-84
2023/12/13 17:32:11;;;;;;;58.90;38.60;;;;;;;7.75;100.00;98724.56;179187;1260;46125;-86
2023/12/13 17:36:14;;;;;;;63.80;40.50;;;;;;;7.75;100.00;98723.80;178967;1257;46110;-85
2023/12/13 17:40:18;;;;;;;54.90;41.40;;;;;;;7.75;100.00;98727.37;178178;1258;58783;-86
2023/12/13 17:44:22;;;;;;;66.50;43.00;;;;;;;7.78;100.00;98727.60;178338;1261;46108;-86
2023/12/13 17:48:30;;;;;;;62.50;39.70;;;;;;;7.84;100.00;98729.83;177972;1261;44545;-87
2023/12/13 17:52:33;;;;;;;58.00;38.70;;;;;;;7.85;100.00;98732.56;178385;1257;46443;-86
2023/12/13 17:56:37;;;;;;;55.60;39.20;;;;;;;7.80;100.00;98736.57;179343;1259;45991;-86
2023/12/13 18:00:46;;;;;;;77.70;49.90;;;;;;;7.77;100.00;98738.13;178667;1257;57441;-86
2023/12/13 18:04:49;;;;;;;49.70;36.20;;;;;;;7.86;100.00;98736.70;179406;1261;46035;-87
2023/12/13 18:08:53;;;;;;;46.30;31.30;;;;;;;7.99;100.00;98738.84;178381;1257;46128;-86
2023/12/13 18:12:56;;;;;;;48.30;33.40;;;;;;;8.06;100.00;98735.58;179711;1258;44039;-88
2023/12/13 18:16:59;;;;;;;47.70;32.90;;;;;;;8.10;100.00;98732.83;179183;1261;46048;-87
2023/12/13 18:21:04;;;;;;;49.90;33.00;;;;;;;8.18;100.00;98734.94;179733;1256;57876;-87
2023/12/13 18:25:08;;;;;;;48.50;33.40;;;;;;;8.22;100.00;98738.05;179840;1261;44365;-87
2023/12/13 18:29:11;;;;;;;49.20;32.70;;;;;;;8.26;100.00;98735.95;179954;1256;44050;-85